createdAt,value
2018-07-17T00:00:11.729Z,19.61
2018-07-17T00:01:11.747Z,19.65
2018-07-17T00:02:11.694Z,19.58
2018-07-17T00:03:13.753Z,19.49
2018-07-17T00:04:11.648Z,19.47
2018-07-17T00:05:11.716Z,19.49
2018-07-17T00:06:11.597Z,19.38
2018-07-17T00:07:12.648Z,19.34
2018-07-17T00:08:11.563Z,19.34
2018-07-17T00:09:12.661Z,19.23
2018-07-17T00:10:11.506Z,19.17
2018-07-17T00:11:12.579Z,19.17
2018-07-17T00:12:11.480Z,19.13
2018-07-17T00:13:11.467Z,19.13
2018-07-17T00:14:11.507Z,19.15
2018-07-17T00:15:11.473Z,19.13
2018-07-17T00:16:11.387Z,19.10
2018-07-17T00:17:11.392Z,19.05
2018-07-17T00:18:11.331Z,19.05
2018-07-17T00:19:11.420Z,19.10
2018-07-17T00:20:11.291Z,19.12
2018-07-17T00:21:11.308Z,19.06
2018-07-17T00:22:11.250Z,18.97
2018-07-17T00:23:11.273Z,18.94
2018-07-17T00:24:11.208Z,19.01
2018-07-17T00:25:11.295Z,18.90
2018-07-17T00:26:11.157Z,18.94
2018-07-17T00:27:11.196Z,18.94
2018-07-17T00:28:11.121Z,18.94
2018-07-17T00:29:11.106Z,18.91
2018-07-17T00:30:11.071Z,18.90
2018-07-17T00:31:11.120Z,19.02
2018-07-17T00:32:11.048Z,18.89
2018-07-17T00:33:11.032Z,18.90
2018-07-17T00:34:10.973Z,18.89
2018-07-17T00:35:11.045Z,18.84
2018-07-17T00:36:10.936Z,18.91
2018-07-17T00:37:10.957Z,18.86
2018-07-17T00:38:10.891Z,18.89
2018-07-17T00:39:10.975Z,18.83
2018-07-17T00:40:10.851Z,18.79
2018-07-17T00:41:10.889Z,18.87
2018-07-17T00:42:10.807Z,18.82
2018-07-17T00:43:10.893Z,18.72
2018-07-17T00:44:10.755Z,18.82
2018-07-17T00:45:10.807Z,18.83
2018-07-17T00:46:10.711Z,18.82
2018-07-17T00:47:10.716Z,18.76
2018-07-17T00:48:10.673Z,18.79
2018-07-17T00:49:10.734Z,18.74
2018-07-17T00:50:10.623Z,18.75
2018-07-17T00:51:10.646Z,18.74
2018-07-17T00:52:10.598Z,18.69
2018-07-17T00:53:10.656Z,18.68
2018-07-17T00:54:10.536Z,18.69
2018-07-17T00:55:10.566Z,18.57
2018-07-17T00:56:10.493Z,18.62
2018-07-17T00:57:10.585Z,18.64
2018-07-17T00:58:10.449Z,18.56
2018-07-17T00:59:10.491Z,18.49
2018-07-17T01:00:10.413Z,18.51
2018-07-17T01:01:10.506Z,18.42
2018-07-17T01:02:10.373Z,18.53
2018-07-17T01:03:10.416Z,18.54
2018-07-17T01:04:10.320Z,18.46
2018-07-17T01:05:10.327Z,18.53
2018-07-17T01:06:10.261Z,18.49
2018-07-17T01:07:10.340Z,18.47
2018-07-17T01:08:10.229Z,18.47
2018-07-17T01:09:10.253Z,18.46
2018-07-17T01:10:10.190Z,18.42
2018-07-17T01:11:10.267Z,18.44
2018-07-17T01:12:10.136Z,18.39
2018-07-17T01:13:10.177Z,18.46
2018-07-17T01:14:10.096Z,18.42
2018-07-17T01:15:11.114Z,18.36
2018-07-17T01:16:10.051Z,18.42
2018-07-17T01:17:10.117Z,18.50
2018-07-17T01:18:09.999Z,18.44
2018-07-17T01:19:10.015Z,18.44
2018-07-17T01:20:09.963Z,18.47
2018-07-17T01:21:10.031Z,18.42
2018-07-17T01:22:09.918Z,18.39
2018-07-17T01:23:09.939Z,18.36
2018-07-17T01:24:09.879Z,18.29
2018-07-17T01:25:09.952Z,18.28
2018-07-17T01:26:09.821Z,18.36
2018-07-17T01:27:09.865Z,18.26
2018-07-17T01:28:09.782Z,18.28
2018-07-17T01:29:09.774Z,18.36
2018-07-17T01:30:09.739Z,18.26
2018-07-17T01:31:09.788Z,18.23
2018-07-17T01:32:09.695Z,18.19
2018-07-17T01:33:09.704Z,18.19
2018-07-17T01:34:09.657Z,18.14
2018-07-17T01:35:09.713Z,18.16
2018-07-17T01:36:09.598Z,18.16
2018-07-17T01:37:09.633Z,18.20
2018-07-17T01:38:09.626Z,18.16
2018-07-17T01:39:09.644Z,18.13
2018-07-17T01:40:09.521Z,18.17
2018-07-17T01:41:09.560Z,18.13
2018-07-17T01:42:09.480Z,18.09
2018-07-17T01:43:09.486Z,18.09
2018-07-17T01:44:09.423Z,18.09
2018-07-17T01:45:09.479Z,17.96
2018-07-17T01:46:09.371Z,18.01
2018-07-17T01:47:09.389Z,17.99
2018-07-17T01:48:09.359Z,17.91
2018-07-17T01:49:09.402Z,17.87
2018-07-17T01:50:09.281Z,17.77
2018-07-17T01:51:09.351Z,17.91
2018-07-17T01:52:09.243Z,17.81
2018-07-17T01:53:09.227Z,17.80
2018-07-17T01:54:09.208Z,17.80
2018-07-17T01:55:09.243Z,17.71
2018-07-17T01:56:09.163Z,17.73
2018-07-17T01:57:09.151Z,17.71
2018-07-17T01:58:09.132Z,17.68
2018-07-17T01:59:09.177Z,17.60
2018-07-17T02:00:09.058Z,17.71
2018-07-17T02:01:09.087Z,17.65
2018-07-17T02:02:09.022Z,17.70
2018-07-17T02:03:09.087Z,17.60
2018-07-17T02:04:08.965Z,17.63
2018-07-17T02:05:09.000Z,17.65
2018-07-17T02:06:08.928Z,17.65
2018-07-17T02:07:09.945Z,17.57
2018-07-17T02:08:08.879Z,17.54
2018-07-17T02:09:08.928Z,17.49
2018-07-17T02:10:08.840Z,17.53
2018-07-17T02:11:08.837Z,17.51
2018-07-17T02:12:08.782Z,17.51
2018-07-17T02:13:08.847Z,17.42
2018-07-17T02:14:08.799Z,17.46
2018-07-17T02:15:08.763Z,17.46
2018-07-17T02:16:08.695Z,17.49
2018-07-17T02:17:08.783Z,17.46
2018-07-17T02:18:08.647Z,17.46
2018-07-17T02:19:08.691Z,17.49
2018-07-17T02:20:08.603Z,17.49
2018-07-17T02:21:08.597Z,17.42
2018-07-17T02:22:08.553Z,17.53
2018-07-17T02:23:08.621Z,17.46
2018-07-17T02:24:08.524Z,17.45
2018-07-17T02:25:09.556Z,17.42
2018-07-17T02:26:08.466Z,17.42
2018-07-17T02:27:08.545Z,17.42
2018-07-17T02:28:08.419Z,17.42
2018-07-17T02:29:08.463Z,17.39
2018-07-17T02:30:08.381Z,17.42
2018-07-17T02:31:08.474Z,17.35
2018-07-17T02:32:08.335Z,17.39
2018-07-17T02:33:08.375Z,17.32
2018-07-17T02:34:08.286Z,17.30
2018-07-17T02:35:08.393Z,17.24
2018-07-17T02:36:08.234Z,17.28
2018-07-17T02:37:08.308Z,17.18
2018-07-17T02:38:08.196Z,17.24
2018-07-17T02:39:09.257Z,17.20
2018-07-17T02:40:08.154Z,17.18
2018-07-17T02:41:08.232Z,17.14
2018-07-17T02:42:08.171Z,17.02
2018-07-17T02:43:08.141Z,17.15
2018-07-17T02:44:08.067Z,17.02
2018-07-17T02:45:08.151Z,17.05
2018-07-17T02:46:08.018Z,16.99
2018-07-17T02:47:08.062Z,17.03
2018-07-17T02:48:07.994Z,17.02
2018-07-17T02:49:07.972Z,17.03
2018-07-17T02:50:07.934Z,17.00
2018-07-17T02:51:07.996Z,17.09
2018-07-17T02:52:07.879Z,17.06
2018-07-17T02:53:07.896Z,16.92
2018-07-17T02:54:07.829Z,16.87
2018-07-17T02:55:07.917Z,16.91
2018-07-17T02:56:07.788Z,16.78
2018-07-17T02:57:07.832Z,16.87
2018-07-17T02:58:07.736Z,16.85
2018-07-17T02:59:07.736Z,16.73
2018-07-17T03:00:07.691Z,16.80
2018-07-17T03:01:07.744Z,16.78
2018-07-17T03:02:07.652Z,16.66
2018-07-17T03:03:07.659Z,16.75
2018-07-17T03:04:07.622Z,16.67
2018-07-17T03:05:07.672Z,16.66
2018-07-17T03:06:07.567Z,16.70
2018-07-17T03:07:07.607Z,16.75
2018-07-17T03:08:07.521Z,16.66
2018-07-17T03:09:07.598Z,16.65
2018-07-17T03:10:07.465Z,16.60
2018-07-17T03:11:07.501Z,16.62
2018-07-17T03:12:07.424Z,16.65
2018-07-17T03:13:07.434Z,16.55
2018-07-17T03:14:07.381Z,16.59
2018-07-17T03:15:07.429Z,16.63
2018-07-17T03:16:07.329Z,16.55
2018-07-17T03:17:07.335Z,16.63
2018-07-17T03:18:07.281Z,16.57
2018-07-17T03:19:07.353Z,16.51
2018-07-17T03:20:07.238Z,16.50
2018-07-17T03:21:07.270Z,16.50
2018-07-17T03:22:07.191Z,16.47
2018-07-17T03:23:07.280Z,16.51
2018-07-17T03:24:07.148Z,16.42
2018-07-17T03:25:07.191Z,16.41
2018-07-17T03:26:07.111Z,16.47
2018-07-17T03:27:07.101Z,16.32
2018-07-17T03:28:07.053Z,16.41
2018-07-17T03:29:07.062Z,16.33
2018-07-17T03:30:07.016Z,16.33
2018-07-17T03:31:07.081Z,16.30
2018-07-17T03:32:06.975Z,16.42
2018-07-17T03:33:06.990Z,16.27
2018-07-17T03:34:06.925Z,16.27
2018-07-17T03:35:07.003Z,16.33
2018-07-17T03:36:06.883Z,16.18
2018-07-17T03:37:06.909Z,16.17
2018-07-17T03:38:06.863Z,16.23
2018-07-17T03:39:06.824Z,16.29
2018-07-17T03:40:06.783Z,16.32
2018-07-17T03:41:06.836Z,16.30
2018-07-17T03:42:06.742Z,16.33
2018-07-17T03:43:06.747Z,16.32
2018-07-17T03:44:06.687Z,16.36
2018-07-17T03:45:06.761Z,16.29
2018-07-17T03:46:06.645Z,16.30
2018-07-17T03:47:06.679Z,16.27
2018-07-17T03:48:06.602Z,16.32
2018-07-17T03:49:06.691Z,16.32
2018-07-17T03:50:06.555Z,16.34
2018-07-17T03:51:06.605Z,16.34
2018-07-17T03:52:06.506Z,16.32
2018-07-17T03:53:06.523Z,16.29
2018-07-17T03:54:06.465Z,16.32
2018-07-17T03:55:06.536Z,16.37
2018-07-17T03:56:06.417Z,16.34
2018-07-17T03:57:06.447Z,16.32
2018-07-17T03:58:06.394Z,16.34
2018-07-17T03:59:06.467Z,16.32
2018-07-17T04:00:06.331Z,16.30
2018-07-17T04:01:06.376Z,16.34
2018-07-17T04:02:08.155Z,16.36
2018-07-17T04:03:06.373Z,16.36
2018-07-17T04:04:06.236Z,16.34
2018-07-17T04:05:06.271Z,16.34
2018-07-17T04:06:06.202Z,16.41
2018-07-17T04:07:06.184Z,16.41
2018-07-17T04:08:06.137Z,16.40
2018-07-17T04:09:07.151Z,16.48
2018-07-17T04:10:06.102Z,16.52
2018-07-17T04:11:07.168Z,16.47
2018-07-17T04:12:06.050Z,16.51
2018-07-17T04:13:07.082Z,16.41
2018-07-17T04:14:06.004Z,16.54
2018-07-17T04:15:06.060Z,16.52
2018-07-17T04:16:05.959Z,16.60
2018-07-17T04:17:05.964Z,16.78
2018-07-17T04:18:05.916Z,16.77
2018-07-17T04:19:05.983Z,16.69
2018-07-17T04:20:05.870Z,16.78
2018-07-17T04:21:05.900Z,16.73
2018-07-17T04:22:05.840Z,16.67
2018-07-17T04:23:05.909Z,16.70
2018-07-17T04:24:05.781Z,16.80
2018-07-17T04:25:05.814Z,16.75
2018-07-17T04:26:05.732Z,16.73
2018-07-17T04:27:05.741Z,16.82
2018-07-17T04:28:05.687Z,16.87
2018-07-17T04:29:10.752Z,16.87
2018-07-17T04:30:05.633Z,16.84
2018-07-17T04:31:05.649Z,16.88
2018-07-17T04:32:05.588Z,16.87
2018-07-17T04:33:10.281Z,16.91
2018-07-17T04:34:05.549Z,16.90
2018-07-17T04:35:06.604Z,16.92
2018-07-17T04:36:05.494Z,17.00
2018-07-17T04:37:06.511Z,16.98
2018-07-17T04:38:05.447Z,16.99
2018-07-17T04:39:05.506Z,17.12
2018-07-17T04:40:05.405Z,17.03
2018-07-17T04:41:05.427Z,17.17
2018-07-17T04:42:05.366Z,17.18
2018-07-17T04:43:06.364Z,17.15
2018-07-17T04:44:05.340Z,17.14
2018-07-17T04:45:06.397Z,17.18
2018-07-17T04:46:05.270Z,17.17
2018-07-17T04:47:05.360Z,17.25
2018-07-17T04:48:05.223Z,17.24
2018-07-17T04:49:05.266Z,17.28
2018-07-17T04:50:05.192Z,17.32
2018-07-17T04:51:05.262Z,17.35
2018-07-17T04:52:05.133Z,17.36
2018-07-17T04:53:05.170Z,17.38
2018-07-17T04:54:05.086Z,17.39
2018-07-17T04:55:05.082Z,17.42
2018-07-17T04:56:05.034Z,17.38
2018-07-17T04:57:05.111Z,17.53
2018-07-17T04:58:04.992Z,17.51
2018-07-17T04:59:05.033Z,17.51
2018-07-17T05:00:04.954Z,17.57
2018-07-17T05:01:05.017Z,17.63
2018-07-17T05:02:04.896Z,17.68
2018-07-17T05:03:04.933Z,17.63
2018-07-17T05:04:04.854Z,17.63
2018-07-17T05:05:04.852Z,17.71
2018-07-17T05:06:04.800Z,17.81
2018-07-17T05:07:04.860Z,17.83
2018-07-17T05:08:04.761Z,17.84
2018-07-17T05:09:04.790Z,17.81
2018-07-17T05:10:04.719Z,17.87
2018-07-17T05:11:04.788Z,17.92
2018-07-17T05:12:04.673Z,17.89
2018-07-17T05:13:04.788Z,18.02
2018-07-17T05:14:04.637Z,18.02
2018-07-17T05:15:04.715Z,17.98
2018-07-17T05:16:04.584Z,18.11
2018-07-17T05:17:04.631Z,18.20
2018-07-17T05:18:04.538Z,18.23
2018-07-17T05:19:04.525Z,18.26
2018-07-17T05:20:04.499Z,18.23
2018-07-17T05:21:04.548Z,18.38
2018-07-17T05:22:04.448Z,18.46
2018-07-17T05:23:05.481Z,18.42
2018-07-17T05:24:04.398Z,18.50
2018-07-17T05:25:04.473Z,18.59
2018-07-17T05:26:04.345Z,18.71
2018-07-17T05:27:04.383Z,18.76
2018-07-17T05:28:04.312Z,18.82
2018-07-17T05:29:04.483Z,18.91
2018-07-17T05:30:04.268Z,18.94
2018-07-17T05:31:04.339Z,18.99
2018-07-17T05:32:04.222Z,19.05
2018-07-17T05:33:04.219Z,19.10
2018-07-17T05:34:04.174Z,19.20
2018-07-17T05:35:04.240Z,19.23
2018-07-17T05:36:04.135Z,19.28
2018-07-17T05:37:04.142Z,19.32
2018-07-17T05:38:04.080Z,19.39
2018-07-17T05:39:04.153Z,19.46
2018-07-17T05:40:04.036Z,19.45
2018-07-17T05:41:04.065Z,19.60
2018-07-17T05:42:04.000Z,19.60
2018-07-17T05:43:04.082Z,19.67
2018-07-17T05:44:03.945Z,19.72
2018-07-17T05:45:03.999Z,19.65
2018-07-17T05:46:03.893Z,19.67
2018-07-17T05:47:04.925Z,19.85
2018-07-17T05:48:03.845Z,19.72
2018-07-17T05:49:03.919Z,19.85
2018-07-17T05:50:03.806Z,19.85
2018-07-17T05:51:03.849Z,19.87
2018-07-17T05:52:03.788Z,19.83
2018-07-17T05:53:03.843Z,19.86
2018-07-17T05:54:03.710Z,19.89
2018-07-17T05:55:03.747Z,19.94
2018-07-17T05:56:03.685Z,19.90
2018-07-17T05:57:03.753Z,19.89
2018-07-17T05:58:03.629Z,19.80
2018-07-17T05:59:03.660Z,19.86
2018-07-17T06:00:03.605Z,19.90
2018-07-17T06:01:03.646Z,19.90
2018-07-17T06:02:03.531Z,19.86
2018-07-17T06:03:03.560Z,19.85
2018-07-17T06:04:03.502Z,19.95
2018-07-17T06:05:03.568Z,20.02
2018-07-17T06:06:03.435Z,20.04
2018-07-17T06:07:03.492Z,20.07
2018-07-17T06:08:03.392Z,20.20
2018-07-17T06:09:03.419Z,20.30
2018-07-17T06:10:03.345Z,20.33
2018-07-17T06:11:03.413Z,20.30
2018-07-17T06:12:03.315Z,20.57
2018-07-17T06:13:03.322Z,20.57
2018-07-17T06:14:03.261Z,20.78
2018-07-17T06:15:03.334Z,20.75
2018-07-17T06:16:03.246Z,20.82
2018-07-17T06:17:03.287Z,20.91
2018-07-17T06:18:03.169Z,20.94
2018-07-17T06:19:03.338Z,20.91
2018-07-17T06:20:03.119Z,21.08
2018-07-17T06:21:03.169Z,21.06
2018-07-17T06:22:03.110Z,21.03
2018-07-17T06:23:03.106Z,21.18
2018-07-17T06:24:03.050Z,21.06
2018-07-17T06:25:03.155Z,21.15
2018-07-17T06:26:02.988Z,21.18
2018-07-17T06:27:03.032Z,21.19
2018-07-17T06:28:02.974Z,21.33
2018-07-17T06:29:03.043Z,21.38
2018-07-17T06:30:02.894Z,21.36
2018-07-17T06:31:02.874Z,21.42
2018-07-17T06:32:02.857Z,21.43
2018-07-17T06:33:02.983Z,21.48
2018-07-17T06:34:02.801Z,21.42
2018-07-17T06:35:02.856Z,21.49
2018-07-17T06:36:02.758Z,21.53
2018-07-17T06:37:02.762Z,21.52
2018-07-17T06:38:02.706Z,21.61
2018-07-17T06:39:03.784Z,21.70
2018-07-17T06:40:02.678Z,21.77
2018-07-17T06:41:02.693Z,21.94
2018-07-17T06:42:02.646Z,21.99
2018-07-17T06:43:02.750Z,22.11
2018-07-17T06:44:02.571Z,22.19
2018-07-17T06:45:02.606Z,22.26
2018-07-17T06:46:02.543Z,22.35
2018-07-17T06:47:02.610Z,22.52
2018-07-17T06:48:02.497Z,22.54
2018-07-17T06:49:02.524Z,22.60
2018-07-17T06:50:02.435Z,22.75
2018-07-17T06:51:02.448Z,22.79
2018-07-17T06:52:02.400Z,22.67
2018-07-17T06:53:02.467Z,22.76
2018-07-17T06:54:02.346Z,22.81
2018-07-17T06:55:02.358Z,22.75
2018-07-17T06:56:02.312Z,22.70
2018-07-17T06:57:02.377Z,22.72
2018-07-17T06:58:02.251Z,22.75
2018-07-17T06:59:02.293Z,22.72
2018-07-17T07:00:02.224Z,22.72
2018-07-17T07:01:02.301Z,22.72
2018-07-17T07:02:02.189Z,22.70
2018-07-17T07:03:02.221Z,22.78
2018-07-17T07:04:02.120Z,22.75
2018-07-17T07:05:02.118Z,22.79
2018-07-17T07:06:02.091Z,22.88
2018-07-17T07:07:02.067Z,22.89
2018-07-17T07:08:02.037Z,22.99
2018-07-17T07:09:01.999Z,22.89
2018-07-17T07:10:01.986Z,23.03
2018-07-17T07:11:01.977Z,23.12
2018-07-17T07:12:01.936Z,23.07
2018-07-17T07:13:01.909Z,23.14
2018-07-17T07:14:01.888Z,23.14
2018-07-17T07:15:01.857Z,23.19
2018-07-17T07:16:02.862Z,23.22
2018-07-17T07:17:01.814Z,23.31
2018-07-17T07:18:01.805Z,23.38
2018-07-17T07:19:01.775Z,23.37
2018-07-17T07:20:01.759Z,23.41
2018-07-17T07:21:01.733Z,23.44
2018-07-17T07:22:01.704Z,23.44
2018-07-17T07:23:01.676Z,23.49
2018-07-17T07:24:01.659Z,23.49
2018-07-17T07:25:01.654Z,23.49
2018-07-17T07:26:01.616Z,23.57
2018-07-17T07:27:01.599Z,23.59
2018-07-17T07:28:01.592Z,23.57
2018-07-17T07:29:01.547Z,23.77
2018-07-17T07:30:01.533Z,23.69
2018-07-17T07:31:01.566Z,23.67
2018-07-17T07:32:01.478Z,23.79
2018-07-17T07:33:01.449Z,23.78
2018-07-17T07:34:01.443Z,23.86
2018-07-17T07:35:01.411Z,23.93
2018-07-17T07:36:01.393Z,23.93
2018-07-17T07:37:01.364Z,24.02
2018-07-17T07:38:01.344Z,24.11
2018-07-17T07:39:01.300Z,24.08
2018-07-17T07:40:01.294Z,24.09
2018-07-17T07:41:01.267Z,24.12
2018-07-17T07:42:01.250Z,24.18
2018-07-17T07:43:01.239Z,24.19
2018-07-17T07:44:01.200Z,24.14
2018-07-17T07:45:01.170Z,24.26
2018-07-17T07:46:01.147Z,24.26
2018-07-17T07:47:01.115Z,24.34
2018-07-17T07:48:01.160Z,24.23
2018-07-17T07:49:01.077Z,24.30
2018-07-17T07:50:01.061Z,24.37
2018-07-17T07:51:01.045Z,24.44
2018-07-17T07:52:01.032Z,24.46
2018-07-17T07:53:00.981Z,24.46
2018-07-17T07:54:00.999Z,24.53
2018-07-17T07:55:00.944Z,24.63
2018-07-17T07:56:00.917Z,24.60
2018-07-17T07:57:00.899Z,24.60
2018-07-17T07:58:00.881Z,24.70
2018-07-17T07:59:00.847Z,24.67
2018-07-17T08:00:00.850Z,24.71
2018-07-17T08:01:00.800Z,24.75
2018-07-17T08:02:00.799Z,24.83
2018-07-17T08:03:00.751Z,24.86
2018-07-17T08:04:00.862Z,24.86
2018-07-17T08:05:00.714Z,24.94
2018-07-17T08:06:00.705Z,24.99
2018-07-17T08:07:00.659Z,24.92
2018-07-17T08:08:00.638Z,25.09
2018-07-17T08:09:00.623Z,25.05
2018-07-17T08:10:00.604Z,25.16
2018-07-17T08:11:00.575Z,25.12
2018-07-17T08:12:00.601Z,25.24
2018-07-17T08:13:00.533Z,25.19
2018-07-17T08:14:00.584Z,25.42
2018-07-17T08:15:00.480Z,25.41
2018-07-17T08:16:00.490Z,25.42
2018-07-17T08:17:00.430Z,25.59
2018-07-17T08:18:00.418Z,25.56
2018-07-17T08:19:00.396Z,25.57
2018-07-17T08:20:00.376Z,25.54
2018-07-17T08:21:00.344Z,25.71
2018-07-17T08:22:00.329Z,25.64
2018-07-17T08:23:00.311Z,25.61
2018-07-17T08:24:00.273Z,25.63
2018-07-17T08:25:00.254Z,25.69
2018-07-17T08:26:00.238Z,25.66
2018-07-17T08:27:00.225Z,25.71
2018-07-17T08:28:00.196Z,25.78
2018-07-17T08:29:00.158Z,25.85
2018-07-17T08:30:00.150Z,25.83
2018-07-17T08:31:00.115Z,25.90
2018-07-17T08:32:00.100Z,25.82
2018-07-17T08:33:00.073Z,25.85
2018-07-17T08:34:00.052Z,25.86
2018-07-17T08:35:00.053Z,25.94
2018-07-17T08:36:00.021Z,26.01
2018-07-17T08:36:59.979Z,26.09
2018-07-17T08:38:00.967Z,26.12
2018-07-17T08:38:59.940Z,26.13
2018-07-17T08:39:59.945Z,26.21
2018-07-17T08:40:59.970Z,26.31
2018-07-17T08:41:59.891Z,26.39
2018-07-17T08:42:59.881Z,26.34
2018-07-17T08:43:59.836Z,26.49
2018-07-17T08:44:59.793Z,26.46
2018-07-17T08:45:59.791Z,26.57
2018-07-17T08:46:59.784Z,26.56
2018-07-17T08:47:59.745Z,26.56
2018-07-17T08:48:59.703Z,26.49
2018-07-17T08:49:59.712Z,26.59
2018-07-17T08:50:59.665Z,26.61
2018-07-17T08:52:00.642Z,26.71
2018-07-17T08:52:59.615Z,26.76
2018-07-17T08:53:59.602Z,26.75
2018-07-17T08:54:59.585Z,26.83
2018-07-17T08:55:59.562Z,26.90
2018-07-17T08:56:59.530Z,26.91
2018-07-17T08:57:59.514Z,26.88
2018-07-17T08:58:59.497Z,27.06
2018-07-17T08:59:59.497Z,26.98
2018-07-17T09:00:59.447Z,27.15
2018-07-17T09:01:59.432Z,27.23
2018-07-17T09:02:59.411Z,27.23
2018-07-17T09:03:59.380Z,27.35
2018-07-17T09:04:59.348Z,27.31
2018-07-17T09:05:59.547Z,27.24
2018-07-17T09:06:59.347Z,27.35
2018-07-17T09:07:59.288Z,27.35
2018-07-17T09:08:59.275Z,27.33
2018-07-17T09:09:59.245Z,27.38
2018-07-17T09:10:59.224Z,27.33
2018-07-17T09:11:59.212Z,27.49
2018-07-17T09:12:59.322Z,27.59
2018-07-17T09:13:59.161Z,27.55
2018-07-17T09:14:59.137Z,27.72
2018-07-17T09:15:59.101Z,27.66
2018-07-17T09:16:59.084Z,27.76
2018-07-17T09:17:59.069Z,27.81
2018-07-17T09:18:59.050Z,27.80
2018-07-17T09:19:59.025Z,27.84
2018-07-17T09:20:58.997Z,27.98
2018-07-17T09:21:59.050Z,28.05
2018-07-17T09:22:58.956Z,28.15
2018-07-17T09:23:59.983Z,28.08
2018-07-17T09:24:58.920Z,28.08
2018-07-17T09:25:58.975Z,28.11
2018-07-17T09:26:58.882Z,28.27
2018-07-17T09:27:59.910Z,28.33
2018-07-17T09:28:58.829Z,28.27
2018-07-17T09:29:58.900Z,28.32
2018-07-17T09:30:58.780Z,28.33
2018-07-17T09:31:58.920Z,28.43
2018-07-17T09:32:58.737Z,28.54
2018-07-17T09:33:58.832Z,28.46
2018-07-17T09:34:58.688Z,28.43
2018-07-17T09:35:59.772Z,28.35
2018-07-17T09:36:58.644Z,28.30
2018-07-17T09:37:58.770Z,28.21
2018-07-17T09:38:58.613Z,28.20
2018-07-17T09:39:58.656Z,28.20
2018-07-17T09:40:58.553Z,28.17
2018-07-17T09:41:58.673Z,28.28
2018-07-17T09:42:58.505Z,28.18
2018-07-17T09:43:58.549Z,28.21
2018-07-17T09:44:58.467Z,28.39
2018-07-17T09:45:58.685Z,28.35
2018-07-17T09:46:58.434Z,28.50
2018-07-17T09:47:58.473Z,28.51
2018-07-17T09:48:58.387Z,28.30
2018-07-17T09:49:58.388Z,28.32
2018-07-17T09:50:58.341Z,28.43
2018-07-17T09:51:58.514Z,28.51
2018-07-17T09:52:58.291Z,28.72
2018-07-17T09:53:58.308Z,28.67
2018-07-17T09:54:58.247Z,28.76
2018-07-17T09:55:58.315Z,28.79
2018-07-17T09:56:58.205Z,28.76
2018-07-17T09:57:58.226Z,28.74
2018-07-17T09:58:58.167Z,28.88
2018-07-17T09:59:58.227Z,29.07
2018-07-17T10:00:58.115Z,29.14
2018-07-17T10:01:58.147Z,29.03
2018-07-17T10:02:58.072Z,29.25
2018-07-17T10:03:58.157Z,29.37
2018-07-17T10:04:58.035Z,29.21
2018-07-17T10:05:58.063Z,29.03
2018-07-17T10:06:57.983Z,28.91
2018-07-17T10:07:58.079Z,28.77
2018-07-17T10:08:57.944Z,28.85
2018-07-17T10:09:57.939Z,28.88
2018-07-17T10:10:57.898Z,28.97
2018-07-17T10:11:57.881Z,29.08
2018-07-17T10:12:57.861Z,29.15
2018-07-17T10:13:57.850Z,29.15
2018-07-17T10:14:57.825Z,29.35
2018-07-17T10:15:57.802Z,29.35
2018-07-17T10:16:57.772Z,29.44
2018-07-17T10:17:57.754Z,29.54
2018-07-17T10:18:57.747Z,29.41
2018-07-17T10:19:57.779Z,29.30
2018-07-17T10:20:57.724Z,29.12
2018-07-17T10:21:57.666Z,29.18
2018-07-17T10:22:57.646Z,29.17
2018-07-17T10:23:57.630Z,29.21
2018-07-17T10:24:57.617Z,29.12
2018-07-17T10:25:57.596Z,29.10
2018-07-17T10:26:57.604Z,28.98
2018-07-17T10:27:57.551Z,29.11
2018-07-17T10:28:57.520Z,28.97
2018-07-17T10:29:57.507Z,28.92
2018-07-17T10:30:57.466Z,28.97
2018-07-17T10:31:57.537Z,29.17
2018-07-17T10:32:57.422Z,29.29
2018-07-17T10:33:57.411Z,29.49
2018-07-17T10:34:57.378Z,29.58
2018-07-17T10:35:57.358Z,29.66
2018-07-17T10:36:57.340Z,29.64
2018-07-17T10:37:57.324Z,29.67
2018-07-17T10:38:57.317Z,29.49
2018-07-17T10:39:57.318Z,29.35
2018-07-17T10:40:57.274Z,28.98
2018-07-17T10:41:57.236Z,28.88
2018-07-17T10:42:57.255Z,28.85
2018-07-17T10:43:57.238Z,28.73
2018-07-17T10:44:57.167Z,28.80
2018-07-17T10:45:57.146Z,28.92
2018-07-17T10:46:57.231Z,29.21
2018-07-17T10:47:57.159Z,29.27
2018-07-17T10:48:57.136Z,29.47
2018-07-17T10:49:57.104Z,29.67
2018-07-17T10:50:57.060Z,29.91
2018-07-17T10:51:57.105Z,30.04
2018-07-17T10:52:57.003Z,30.03
2018-07-17T10:53:56.970Z,30.00
2018-07-17T10:54:56.963Z,30.00
2018-07-17T10:55:56.971Z,29.79
2018-07-17T10:56:56.998Z,29.60
2018-07-17T10:57:56.882Z,29.54
2018-07-17T10:58:56.896Z,29.37
2018-07-17T10:59:56.856Z,29.36
2018-07-17T11:00:56.832Z,29.12
2018-07-17T11:01:56.800Z,29.25
2018-07-17T11:02:56.792Z,29.33
2018-07-17T11:03:56.756Z,29.25
2018-07-17T11:04:56.743Z,29.41
2018-07-17T11:05:56.718Z,29.36
2018-07-17T11:06:56.701Z,29.39
2018-07-17T11:07:56.680Z,29.64
2018-07-17T11:08:56.666Z,29.79
2018-07-17T11:09:56.636Z,30.06
2018-07-17T11:10:56.613Z,30.11
2018-07-17T11:11:56.683Z,30.36
2018-07-17T11:12:56.598Z,30.42
2018-07-17T11:13:57.601Z,30.63
2018-07-17T11:14:56.527Z,30.72
2018-07-17T11:15:56.591Z,30.76
2018-07-17T11:16:56.475Z,30.40
2018-07-17T11:17:56.515Z,30.22
2018-07-17T11:18:56.435Z,30.19
2018-07-17T11:19:56.531Z,30.00
2018-07-17T11:20:56.407Z,29.82
2018-07-17T11:21:56.429Z,29.76
2018-07-17T11:22:56.363Z,29.69
2018-07-17T11:23:56.440Z,29.71
2018-07-17T11:24:56.312Z,29.60
2018-07-17T11:25:56.353Z,29.52
2018-07-17T11:26:56.272Z,29.73
2018-07-17T11:27:56.374Z,29.78
2018-07-17T11:28:56.231Z,29.71
2018-07-17T11:29:56.277Z,29.82
2018-07-17T11:30:56.197Z,29.88
2018-07-17T11:31:56.306Z,29.88
2018-07-17T11:32:56.148Z,29.79
2018-07-17T11:33:56.252Z,29.84
2018-07-17T11:34:56.184Z,30.00
2018-07-17T11:35:56.237Z,30.25
2018-07-17T11:36:56.110Z,30.32
2018-07-17T11:37:56.145Z,30.23
2018-07-17T11:38:56.026Z,30.06
2018-07-17T11:39:56.040Z,30.16
2018-07-17T11:40:55.988Z,30.04
2018-07-17T11:41:56.060Z,30.00
2018-07-17T11:42:55.945Z,29.91
2018-07-17T11:43:55.984Z,29.82
2018-07-17T11:44:55.900Z,29.66
2018-07-17T11:45:55.981Z,29.51
2018-07-17T11:46:55.857Z,29.41
2018-07-17T11:47:55.971Z,29.29
2018-07-17T11:48:55.822Z,29.15
2018-07-17T11:49:55.867Z,28.97
2018-07-17T11:50:55.776Z,28.79
2018-07-17T11:51:55.790Z,28.76
2018-07-17T11:52:55.743Z,28.85
2018-07-17T11:53:55.791Z,28.91
2018-07-17T11:54:55.704Z,29.12
2018-07-17T11:55:55.701Z,29.17
2018-07-17T11:56:55.644Z,29.45
2018-07-17T11:57:56.745Z,29.51
2018-07-17T11:58:55.620Z,29.70
2018-07-17T11:59:55.627Z,29.99
2018-07-17T12:00:55.565Z,30.19
2018-07-17T12:01:55.643Z,30.25
2018-07-17T12:02:55.518Z,30.30
2018-07-17T12:03:55.550Z,30.34
2018-07-17T12:04:55.479Z,30.48
2018-07-17T12:05:55.639Z,30.38
2018-07-17T12:06:55.429Z,30.37
2018-07-17T12:07:55.476Z,30.40
2018-07-17T12:08:55.400Z,30.54
2018-07-17T12:09:56.411Z,30.57
2018-07-17T12:10:55.361Z,30.68
2018-07-17T12:11:56.424Z,30.83
2018-07-17T12:12:55.329Z,30.85
2018-07-17T12:13:56.337Z,30.91
2018-07-17T12:14:55.298Z,30.91
2018-07-17T12:15:56.347Z,30.81
2018-07-17T12:16:55.226Z,30.88
2018-07-17T12:17:55.240Z,30.85
2018-07-17T12:18:55.190Z,30.68
2018-07-17T12:19:55.269Z,30.61
2018-07-17T12:20:55.137Z,30.60
2018-07-17T12:21:55.155Z,30.63
2018-07-17T12:22:55.118Z,30.66
2018-07-17T12:23:56.212Z,30.82
2018-07-17T12:24:55.090Z,30.70
2018-07-17T12:25:55.088Z,30.63
2018-07-17T12:26:55.019Z,30.49
2018-07-17T12:27:55.138Z,30.34
2018-07-17T12:28:54.969Z,30.30
2018-07-17T12:29:56.037Z,30.25
2018-07-17T12:30:54.934Z,30.40
2018-07-17T12:31:55.011Z,30.51
2018-07-17T12:32:54.907Z,30.60
2018-07-17T12:33:54.929Z,30.70
2018-07-17T12:34:54.913Z,30.70
2018-07-17T12:35:54.935Z,30.61
2018-07-17T12:36:54.825Z,30.60
2018-07-17T12:37:54.847Z,30.70
2018-07-17T12:38:54.769Z,30.81
2018-07-17T12:39:54.769Z,30.91
2018-07-17T12:40:54.757Z,30.86
2018-07-17T12:41:54.788Z,31.00
2018-07-17T12:42:54.690Z,31.15
2018-07-17T12:43:54.787Z,31.12
2018-07-17T12:44:54.656Z,31.23
2018-07-17T12:45:55.724Z,31.20
2018-07-17T12:46:54.613Z,31.16
2018-07-17T12:47:54.612Z,31.45
2018-07-17T12:48:54.598Z,31.34
2018-07-17T12:49:54.652Z,31.16
2018-07-17T12:50:54.534Z,30.59
2018-07-17T12:51:54.532Z,30.38